Time;durP1;ratioP1;P1;durP2;ratioP2;P2;SDS_P1;SDS_P2;PMS_P1;PMS_P2;Temp;Humidity;BMP_temperature;BMP_pressure;BME280_temperature;BME280_humidity;BME280_pressure;Samples;Min_cycle;Max_cycle;Signal;HPM_P1;HPM_P2
2023/02/07 00:01:33;;;;;;;14.32;8.70;;;2.00;61.70;;;-3.27;90.48;96792.19;5017835;28;20032;-54
2023/02/07 00:04:20;;;;;;;15.32;8.52;;;2.00;61.70;;;-3.26;90.20;96793.00;4996524;28;20063;-52
2023/02/07 00:06:46;;;;;;;15.18;8.50;;;2.00;61.70;;;-3.26;89.85;96798.22;5030770;28;20387;-52
2023/02/07 00:09:16;;;;;;;11.25;7.57;;;2.00;61.70;;;-3.32;90.13;96781.44;5025705;28;20032;-48
2023/02/07 00:11:45;;;;;;;15.13;8.13;;;1.90;61.60;;;-3.37;89.75;96757.59;5030554;28;20021;-50
2023/02/07 00:14:12;;;;;;;15.35;8.18;;;1.90;61.60;;;-3.34;89.67;96754.69;5017329;28;20099;-48
2023/02/07 00:16:39;;;;;;;16.13;8.52;;;1.90;61.50;;;-3.40;89.41;96747.47;5036311;28;20048;-48
2023/02/07 00:19:06;;;;;;;15.50;8.68;;;1.90;61.50;;;-3.44;89.36;96753.13;5013322;28;20029;-47
2023/02/07 00:21:34;;;;;;;15.25;8.15;;;1.90;61.50;;;-3.41;89.09;96750.22;5015491;28;20025;-48
2023/02/07 00:24:00;;;;;;;14.38;8.80;;;1.80;61.50;;;-3.43;89.13;96750.38;5030330;28;20025;-48
2023/02/07 00:26:27;;;;;;;15.52;8.10;;;1.80;61.50;;;-3.47;89.73;96756.03;5012792;28;20086;-49
2023/02/07 00:28:56;;;;;;;16.33;9.20;;;1.80;61.50;;;-3.53;89.59;96753.03;5026726;28;20045;-50
2023/02/07 00:31:31;;;;;;;14.77;8.52;;;1.80;61.40;;;-3.52;89.46;96752.06;5020774;28;20541;-49
2023/02/07 00:34:03;;;;;;;16.88;9.55;;;1.80;61.50;;;-3.53;89.68;96762.66;5028879;28;20123;-48
2023/02/07 00:36:33;;;;;;;13.13;8.40;;;1.70;61.40;;;-3.50;89.28;96762.34;5031454;28;20025;-52
2023/02/07 00:39:05;;;;;;;16.65;9.05;;;1.70;61.40;;;-3.56;89.72;96768.97;5028957;28;20036;-51
2023/02/07 00:41:31;;;;;;;15.70;9.32;;;1.70;61.40;;;-3.61;90.06;96762.56;5029730;28;20040;-49
2023/02/07 00:43:57;;;;;;;15.30;8.80;;;1.70;61.40;;;-3.62;90.60;96747.91;5029143;28;20024;-53
2023/02/07 00:46:26;;;;;;;16.75;8.38;;;1.70;61.40;;;-3.59;90.25;96750.22;5029405;28;20479;-48
2023/02/07 00:48:52;;;;;;;13.05;8.23;;;1.60;61.40;;;-3.58;90.27;96749.22;5013052;28;20035;-48
2023/02/07 00:51:25;;;;;;;16.25;9.77;;;1.60;61.50;;;-3.64;90.58;96752.44;5028777;28;20020;-49
2023/02/07 00:53:53;;;;;;;16.27;9.60;;;1.60;61.50;;;-3.72;91.42;96753.19;5030202;28;20560;-53
2023/02/07 00:56:23;;;;;;;17.92;9.63;;;1.60;61.60;;;-3.72;91.67;96761.81;5012247;28;20104;-48
2023/02/07 00:58:52;;;;;;;15.65;9.18;;;1.60;61.70;;;-3.71;91.87;96760.00;5013661;28;20056;-50
2023/02/07 01:01:23;;;;;;;16.48;9.25;;;1.50;61.70;;;-3.74;91.63;96752.50;5029352;28;20052;-50
2023/02/07 01:03:50;;;;;;;15.18;9.30;;;1.50;61.70;;;-3.74;92.28;96729.06;5030002;28;20028;-47
2023/02/07 01:06:16;;;;;;;16.02;9.18;;;1.50;61.80;;;-3.74;92.42;96739.47;5013230;28;20031;-52
2023/02/07 01:08:43;;;;;;;15.95;9.57;;;1.50;61.90;;;-3.76;92.19;96737.03;5011100;28;20110;-49
2023/02/07 01:11:15;;;;;;;15.25;8.70;;;1.50;62.00;;;-3.74;91.86;96729.88;5012678;28;20023;-49
2023/02/07 01:13:43;;;;;;;17.67;10.17;;;1.50;62.00;;;-3.73;91.86;96746.31;5029551;28;20033;-47
2023/02/07 01:16:45;;;;;;;16.98;8.82;;;1.50;62.10;;;-3.74;92.46;96742.88;5012257;28;20307;-50
2023/02/07 01:19:12;;;;;;;17.17;9.40;;;1.50;62.10;;;-3.77;92.61;96747.56;4949430;28;20023;-50
2023/02/07 01:21:41;;;;;;;16.70;9.50;;;1.50;62.10;;;-3.75;92.72;96738.66;4992820;28;20071;-51
2023/02/07 01:24:10;;;;;;;18.33;10.05;;;1.50;62.20;;;-3.75;92.36;96748.25;5009650;28;20033;-47
2023/02/07 01:26:38;;;;;;;16.60;9.38;;;1.40;62.10;;;-3.78;92.51;96740.75;5023408;28;20031;-48
2023/02/07 01:29:06;;;;;;;16.10;9.40;;;1.50;62.30;;;-3.83;92.69;96738.56;5008817;28;20041;-46
2023/02/07 01:31:32;;;;;;;14.75;9.35;;;1.40;62.20;;;-3.83;93.28;96741.16;5009895;28;20028;-49
2023/02/07 01:34:01;;;;;;;16.35;9.75;;;1.40;62.30;;;-3.83;92.97;96714.31;5029222;28;20032;-47
2023/02/07 01:36:29;;;;;;;18.02;10.23;;;1.40;62.30;;;-3.87;93.43;96726.81;5012409;28;20017;-47
2023/02/07 01:38:56;;;;;;;16.25;9.68;;;1.40;62.30;;;-3.89;93.22;96694.88;5010514;28;20039;-50
2023/02/07 01:41:26;;;;;;;14.90;9.02;;;1.40;62.30;;;-3.90;93.22;96710.66;5015740;28;20025;-47
2023/02/07 01:44:21;;;;;;;18.77;9.52;;;1.40;62.40;;;-3.93;93.27;96695.34;5021405;28;20033;-48
2023/02/07 01:46:53;;;;;;;17.05;10.02;;;1.40;62.50;;;-3.97;92.19;96687.00;4943039;28;20494;-47
2023/02/07 01:49:34;;;;;;;17.15;10.35;;;1.40;62.50;;;-3.93;91.00;96683.13;5008800;28;20026;-46
2023/02/07 01:52:15;;;;;;;14.73;8.82;;;1.30;62.50;;;-3.91;90.19;96701.22;5029331;28;20024;-45
2023/02/07 01:54:49;;;;;;;16.48;8.93;;;1.30;62.50;;;-3.90;89.77;96701.06;5024763;28;20036;-46
2023/02/07 01:57:23;;;;;;;15.10;9.45;;;1.30;62.40;;;-3.93;90.12;96705.75;5028450;28;20586;-44
2023/02/07 01:59:56;;;;;;;15.75;8.60;;;1.30;62.40;;;-3.97;90.25;96711.25;5011651;28;20223;-48
2023/02/07 02:02:26;;;;;;;13.13;7.97;;;1.30;62.30;;;-3.99;90.64;96704.56;5024921;28;20021;-47
2023/02/07 02:04:56;;;;;;;17.52;10.00;;;1.30;62.30;;;-4.01;90.49;96715.13;5030021;28;20025;-50
2023/02/07 02:07:27;;;;;;;15.88;9.13;;;1.30;62.20;;;-4.05;90.61;96721.56;5012224;28;20102;-48
2023/02/07 02:09:56;;;;;;;15.48;9.23;;;1.30;62.20;;;-4.08;90.96;96728.84;5010574;28;20036;-49
2023/02/07 02:13:17;;;;;;;16.42;9.88;;;1.30;62.20;;;-4.07;90.51;96733.91;5029767;28;20024;-49
2023/02/07 02:16:42;;;;;;;18.23;10.02;;;1.20;62.10;;;-4.05;90.33;96729.38;5037100;28;20036;-47
2023/02/07 02:20:07;;;;;;;18.15;9.85;;;1.20;62.10;;;-4.11;90.50;96723.94;4997757;28;20036;-47
2023/02/07 02:23:50;;;;;;;18.23;9.55;;;1.20;62.20;;;-4.15;90.88;96728.59;4996058;28;20082;-48
2023/02/07 02:26:56;;;;;;;16.83;9.38;;;1.10;62.20;;;-4.15;91.34;96723.41;5019151;28;20032;-45
2023/02/07 02:30:36;;;;;;;18.55;10.07;;;1.10;62.40;;;-4.19;91.35;96720.28;5009197;28;20045;-47
2023/02/07 02:33:40;;;;;;;19.13;10.65;;;1.10;62.40;;;-4.22;91.68;96730.16;5027672;28;20402;-47
2023/02/07 02:36:54;;;;;;;23.30;10.73;;;1.00;62.50;;;-4.25;91.87;96718.25;5029105;28;20025;-49
2023/02/07 02:40:11;;;;;;;22.02;11.43;;;1.00;62.50;;;-4.29;91.73;96706.50;5009354;28;20437;-51
2023/02/07 02:42:54;;;;;;;17.35;10.32;;;1.00;62.60;;;-4.27;91.52;96714.16;5027821;28;20037;-48
2023/02/07 02:45:40;;;;;;;19.40;11.45;;;1.00;62.60;;;-4.30;92.16;96727.44;5026875;28;20360;-48
2023/02/07 02:48:11;;;;;;;22.25;10.73;;;1.00;62.60;;;-4.29;92.01;96731.72;5020102;28;20118;-46
2023/02/07 02:50:48;;;;;;;19.63;10.93;;;1.00;62.60;;;-4.30;92.07;96732.66;5005836;28;20024;-48
2023/02/07 02:53:15;;;;;;;23.83;11.57;;;1.00;62.70;;;-4.30;92.23;96724.84;5027502;28;20029;-47
2023/02/07 02:56:44;;;;;;;20.73;10.57;;;0.90;62.60;;;-4.29;91.65;96735.13;5027173;28;20029;-48
2023/02/07 03:00:13;;;;;;;22.88;11.18;;;1.00;62.70;;;-4.32;92.12;96735.41;5020819;28;20017;-49
2023/02/07 03:03:19;;;;;;;21.73;11.60;;;1.00;62.80;;;-4.30;91.66;96750.84;5014929;28;20115;-47
2023/02/07 03:06:31;;;;;;;22.70;11.10;;;0.90;62.70;;;-4.36;91.72;96762.66;5012365;28;20017;-46
2023/02/07 03:09:19;;;;;;;22.52;10.80;;;0.90;62.80;;;-4.33;92.16;96774.56;4997491;28;20056;-46
2023/02/07 03:12:16;;;;;;;20.80;10.63;;;0.90;62.80;;;-4.30;91.65;96771.69;5028732;28;20517;-46
2023/02/07 03:15:33;;;;;;;22.00;11.35;;;0.90;62.80;;;-4.37;91.68;96766.22;5031082;28;20037;-47
2023/02/07 03:18:31;;;;;;;17.27;10.30;;;0.90;62.90;;;-4.38;91.55;96776.78;5010491;28;20526;-46
2023/02/07 03:21:32;;;;;;;21.52;10.98;;;0.90;62.90;;;-4.35;91.83;96776.50;5015896;28;20036;-45
2023/02/07 03:24:25;;;;;;;21.10;11.70;;;0.90;62.90;;;-4.35;91.74;96786.91;5005816;28;20549;-46
2023/02/07 03:27:05;;;;;;;20.98;12.30;;;0.80;62.80;;;-4.40;91.57;96792.53;5021699;28;20207;-47
2023/02/07 03:29:41;;;;;;;20.55;11.88;;;0.80;62.80;;;-4.37;91.62;96799.22;5030219;28;20043;-46
2023/02/07 03:32:15;;;;;;;22.55;12.40;;;0.90;62.80;;;-4.35;91.50;96807.72;5017223;28;20071;-50
2023/02/07 03:35:07;;;;;;;21.75;11.30;;;0.80;62.70;;;-4.42;91.37;96825.66;5012098;28;20033;-46
2023/02/07 03:37:50;;;;;;;21.33;12.15;;;0.80;62.70;;;-4.40;91.90;96839.34;5011133;28;20614;-47
2023/02/07 03:40:17;;;;;;;21.92;12.15;;;0.80;62.80;;;-4.38;92.12;96834.03;5021667;28;20028;-47
2023/02/07 03:43:26;;;;;;;23.02;11.13;;;0.80;62.80;;;-4.38;91.97;96844.44;5010994;28;20021;-48
2023/02/07 03:45:56;;;;;;;21.30;11.90;;;0.80;62.90;;;-4.44;92.30;96846.63;5029326;28;20032;-51
2023/02/07 03:48:23;;;;;;;19.73;11.55;;;0.80;62.80;;;-4.42;92.13;96854.25;5022514;28;20453;-48
2023/02/07 03:50:55;;;;;;;21.73;11.80;;;0.80;62.80;;;-4.40;92.70;96865.38;5029197;28;20024;-50
2023/02/07 03:53:21;;;;;;;20.00;12.35;;;0.80;62.90;;;-4.45;92.71;96872.75;5027324;28;20029;-48
2023/02/07 03:55:47;;;;;;;24.75;13.02;;;0.80;62.80;;;-4.48;92.92;96863.47;5012164;28;20509;-49
2023/02/07 03:58:18;;;;;;;21.55;12.57;;;0.80;62.90;;;-4.48;92.75;96866.06;5013942;28;20078;-46
2023/02/07 04:00:44;;;;;;;22.70;12.40;;;0.80;62.90;;;-4.48;93.00;96875.63;5009509;28;20101;-49
2023/02/07 04:03:10;;;;;;;25.23;13.20;;;0.80;62.90;;;-4.51;93.22;96881.09;5010270;28;20024;-47
2023/02/07 04:05:36;;;;;;;26.27;13.70;;;0.80;62.90;;;-4.55;93.21;96885.78;5012063;28;20036;-48
2023/02/07 04:08:08;;;;;;;22.73;12.70;;;0.70;63.20;;;-4.51;93.54;96888.91;5006537;28;20935;-48
2023/02/07 04:10:34;;;;;;;21.30;12.13;;;0.70;62.90;;;-4.56;93.86;96891.13;5027075;28;20106;-50
2023/02/07 04:13:03;;;;;;;25.50;13.23;;;0.70;63.00;;;-4.48;93.61;96897.28;5040774;28;20047;-46
2023/02/07 04:15:32;;;;;;;27.90;14.80;;;0.70;63.00;;;-4.52;93.79;96903.69;5029306;28;20024;-51
2023/02/07 04:17:57;;;;;;;26.73;13.38;;;0.70;63.00;;;-4.56;94.26;96899.75;5025462;28;20044;-50
2023/02/07 04:20:23;;;;;;;21.60;13.25;;;0.70;63.00;;;-4.54;93.96;96904.81;5000799;28;20117;-50
2023/02/07 04:22:55;;;;;;;23.77;13.80;;;0.70;63.00;;;-4.58;94.38;96913.84;5030410;28;20043;-47
2023/02/07 04:25:21;;;;;;;27.77;14.32;;;0.70;63.00;;;-4.61;94.34;96909.72;5029533;28;20029;-48
2023/02/07 04:27:49;;;;;;;24.50;13.82;;;0.60;62.90;;;-4.64;94.73;96923.00;5027224;28;20349;-46
2023/02/07 04:30:27;;;;;;;27.10;14.30;;;0.60;62.90;;;-4.68;95.16;96906.88;5012214;28;20067;-53
2023/02/07 04:32:56;;;;;;;28.05;14.75;;;0.60;63.80;;;-4.68;95.31;96921.66;5024643;28;20026;-47
2023/02/07 04:35:22;;;;;;;25.48;14.07;;;0.60;63.00;;;-4.72;95.24;96915.91;5030344;28;20036;-50
2023/02/07 04:37:54;;;;;;;25.83;14.60;;;0.60;63.10;;;-4.70;95.38;96908.81;5029293;28;20464;-46
2023/02/07 04:40:20;;;;;;;26.50;14.93;;;0.60;63.30;;;-4.72;95.34;96909.88;5028638;28;20082;-47
2023/02/07 04:42:48;;;;;;;26.17;14.50;;;0.60;63.30;;;-4.69;95.23;96914.81;5030267;28;21006;-47
2023/02/07 04:45:17;;;;;;;26.83;14.00;;;0.60;64.20;;;-4.68;95.15;96911.25;5027884;28;20028;-51
2023/02/07 04:47:52;;;;;;;26.48;15.05;;;0.60;63.40;;;-4.69;95.67;96925.22;5028034;28;20024;-46
2023/02/07 04:50:23;;;;;;;26.15;14.02;;;0.60;63.50;;;-4.68;95.27;96919.06;5028408;28;20459;-50
2023/02/07 04:52:52;;;;;;;26.60;13.52;;;0.60;63.50;;;-4.65;95.03;96931.78;5009263;28;20029;-48
2023/02/07 04:55:18;;;;;;;25.73;12.55;;;0.60;63.50;;;-4.75;95.73;96915.34;5021787;28;20028;-47
2023/02/07 04:57:47;;;;;;;26.95;14.27;;;0.50;63.40;;;-4.71;95.80;96930.53;5011178;28;20055;-53
2023/02/07 05:00:14;;;;;;;28.85;14.57;;;0.60;63.50;;;-4.69;95.45;96939.03;5029733;28;20029;-53
2023/02/07 05:02:52;;;;;;;27.98;14.23;;;0.60;63.50;;;-4.63;95.66;96957.66;5026450;28;20029;-53
2023/02/07 05:05:24;;;;;;;27.77;14.52;;;0.60;63.70;;;-4.61;95.13;96963.53;5029195;28;20078;-45
2023/02/07 05:07:53;;;;;;;28.60;15.05;;;0.60;63.80;;;-4.51;94.88;96974.75;5010961;28;20025;-46
2023/02/07 05:10:22;;;;;;;29.45;15.60;;;0.70;63.80;;;-4.48;94.71;96974.47;5029160;28;20025;-47
2023/02/07 05:12:48;;;;;;;26.35;14.93;;;0.70;63.90;;;-4.46;94.62;96983.78;5029235;28;20146;-47
2023/02/07 05:15:22;;;;;;;26.30;14.68;;;0.70;63.80;;;-4.43;94.20;96982.69;5026422;28;20558;-49
2023/02/07 05:17:48;;;;;;;26.42;14.27;;;0.80;63.90;;;-4.41;94.16;96975.59;5027956;28;20075;-46
2023/02/07 05:20:15;;;;;;;29.00;15.25;;;0.80;63.80;;;-4.36;94.21;96982.97;5027093;28;20036;-45
2023/02/07 05:22:41;;;;;;;26.80;14.80;;;0.90;63.80;;;-4.44;94.42;96994.88;5024798;28;20029;-52
2023/02/07 05:25:13;;;;;;;25.35;14.40;;;0.90;63.70;;;-4.38;94.37;96990.94;5012061;28;20037;-49
2023/02/07 05:27:40;;;;;;;27.00;14.02;;;0.90;63.60;;;-4.44;94.14;96981.88;5027895;28;20048;-46
2023/02/07 05:30:08;;;;;;;24.20;13.05;;;0.90;63.50;;;-4.42;93.98;96984.34;5027849;28;20025;-47
2023/02/07 05:35:21;;;;;;;24.38;14.38;;;0.90;63.20;;;-4.48;93.86;96980.53;5029298;28;20027;-46
2023/02/07 05:37:47;;;;;;;26.95;14.68;;;0.80;63.10;;;-4.54;94.43;96986.28;5022260;28;20112;-52
2023/02/07 05:40:13;;;;;;;28.50;14.95;;;0.80;63.10;;;-4.60;94.64;96984.22;5007846;28;20538;-47
2023/02/07 05:42:39;;;;;;;26.75;14.32;;;0.80;63.20;;;-4.60;94.75;96976.41;5025677;28;20025;-47
2023/02/07 05:45:08;;;;;;;34.75;15.95;;;0.80;63.20;;;-4.63;94.94;96971.47;4993814;28;20123;-46
2023/02/07 05:47:34;;;;;;;27.38;14.45;;;0.70;63.20;;;-4.63;95.08;96968.06;5023945;28;20546;-46
2023/02/07 05:50:00;;;;;;;28.85;15.13;;;0.60;63.30;;;-4.65;95.02;96966.41;5014124;28;20122;-49
2023/02/07 05:52:26;;;;;;;25.92;14.80;;;0.60;63.30;;;-4.71;95.38;96972.13;5028539;28;20024;-46
2023/02/07 05:54:55;;;;;;;28.85;15.45;;;0.60;63.30;;;-4.70;95.17;96976.41;4993510;28;20044;-49
2023/02/07 05:57:21;;;;;;;29.50;16.92;;;0.60;63.40;;;-4.73;95.78;96975.81;5033132;28;20028;-46
2023/02/07 05:59:50;;;;;;;28.02;14.63;;;0.60;63.40;;;-4.80;96.25;96985.13;5010443;28;20044;-46
2023/02/07 06:02:16;;;;;;;28.10;15.93;;;0.50;63.40;;;-4.75;96.04;96991.56;5008952;28;20036;-49
2023/02/07 06:04:42;;;;;;;25.30;14.00;;;0.50;63.40;;;-4.80;96.17;96987.72;5028875;28;20517;-47
2023/02/07 06:07:08;;;;;;;29.88;15.55;;;0.50;63.50;;;-4.77;96.37;96984.88;5028413;28;20044;-47
2023/02/07 06:09:34;;;;;;;28.13;15.75;;;0.50;63.50;;;-4.81;96.82;96983.50;5008503;28;20364;-46
2023/02/07 06:12:03;;;;;;;32.58;16.58;;;0.50;63.50;;;-4.80;96.33;96980.75;5009619;28;20100;-45
2023/02/07 06:14:32;;;;;;;34.63;16.52;;;0.50;63.60;;;-4.81;97.01;96971.31;5027121;28;20123;-47
2023/02/07 06:16:58;;;;;;;30.08;15.73;;;0.50;63.60;;;-4.81;97.11;96973.09;5026928;28;20012;-45
2023/02/07 06:19:27;;;;;;;29.60;16.52;;;0.50;63.70;;;-4.83;97.10;96964.59;5028000;28;20024;-47
2023/02/07 06:21:55;;;;;;;29.30;15.85;;;0.50;63.80;;;-4.84;97.19;96973.38;5026567;28;20564;-48
2023/02/07 06:24:24;;;;;;;31.02;17.23;;;0.40;63.70;;;-4.85;97.45;96961.34;5011427;28;20032;-48
2023/02/07 06:26:50;;;;;;;30.90;16.38;;;0.40;63.90;;;-4.83;97.79;96962.00;5011233;28;20022;-46
2023/02/07 06:29:16;;;;;;;28.67;16.10;;;0.40;63.90;;;-4.84;97.44;96971.59;5023446;28;20056;-47
2023/02/07 06:31:42;;;;;;;36.00;17.50;;;0.40;63.90;;;-4.86;97.35;96960.50;5025922;28;20029;-50
2023/02/07 06:34:07;;;;;;;30.85;17.30;;;0.40;64.00;;;-4.89;97.36;96971.16;5027662;28;20041;-46
2023/02/07 06:36:33;;;;;;;29.95;16.25;;;0.40;64.00;;;-4.88;97.32;96967.63;5004262;28;20074;-50
2023/02/07 06:39:03;;;;;;;35.65;17.67;;;0.40;64.10;;;-4.88;97.38;96970.22;5001011;28;20033;-46
2023/02/07 06:41:29;;;;;;;31.70;16.85;;;0.40;64.10;;;-4.86;97.26;96975.25;4965702;28;21096;-48
2023/02/07 06:43:55;;;;;;;32.78;17.30;;;0.40;64.10;;;-4.88;97.29;96975.41;5025967;28;20029;-47
2023/02/07 06:46:21;;;;;;;34.22;17.02;;;0.40;64.10;;;-4.86;96.93;96976.09;5023968;28;20484;-46
2023/02/07 06:48:47;;;;;;;26.65;15.63;;;0.40;64.10;;;-4.89;96.68;96976.34;5020411;28;20044;-50
2023/02/07 06:51:13;;;;;;;29.45;15.20;;;0.40;64.10;;;-4.88;96.88;96997.03;5005971;28;20391;-49
2023/02/07 06:53:39;;;;;;;33.25;16.83;;;0.40;64.10;;;-4.89;96.96;97003.19;5014369;28;20032;-45
2023/02/07 06:56:05;;;;;;;37.67;16.85;;;0.40;64.00;;;-4.89;96.86;97015.34;5007827;28;20097;-48
2023/02/07 06:58:31;;;;;;;29.38;16.02;;;0.40;63.90;;;-4.94;97.20;97018.34;5005218;28;20036;-46
2023/02/07 07:00:57;;;;;;;33.45;17.40;;;0.40;64.00;;;-4.90;97.18;97011.94;5010515;28;20387;-48
2023/02/07 07:03:27;;;;;;;29.50;16.80;;;0.50;64.00;;;-4.88;97.26;97007.44;5030047;28;20029;-48
2023/02/07 07:05:53;;;;;;;33.58;17.45;;;0.40;64.00;;;-4.89;97.06;97010.16;5029293;28;20188;-48
2023/02/07 07:08:19;;;;;;;29.40;15.88;;;0.50;64.00;;;-4.83;97.20;97014.00;4988322;28;20052;-45
2023/02/07 07:10:55;;;;;;;30.17;16.25;;;0.50;64.00;;;-4.82;96.71;97013.88;5011711;28;20049;-46
2023/02/07 07:13:21;;;;;;;29.70;16.50;;;0.50;63.90;;;-4.85;97.13;97018.53;5029635;28;20443;-47
2023/02/07 07:15:47;;;;;;;33.95;17.55;;;0.50;63.90;;;-4.82;97.02;97018.25;5029777;28;20119;-48
2023/02/07 07:18:13;;;;;;;32.90;17.60;;;0.50;63.90;;;-4.83;97.64;97017.41;5032845;28;20032;-46
2023/02/07 07:20:39;;;;;;;30.55;16.38;;;0.50;64.00;;;-4.84;97.12;97010.56;4995362;28;20029;-48
2023/02/07 07:23:05;;;;;;;29.63;16.92;;;0.50;63.90;;;-4.85;97.05;97011.53;5031358;28;20383;-47
2023/02/07 07:25:31;;;;;;;33.00;17.30;;;0.60;64.00;;;-4.83;97.20;97014.00;4997216;28;20028;-46
2023/02/07 07:27:57;;;;;;;29.02;16.73;;;0.60;64.00;;;-4.79;96.97;97018.00;5033883;28;20067;-48
2023/02/07 07:30:24;;;;;;;28.25;16.50;;;0.60;64.80;;;-4.77;96.85;97021.25;5012865;28;20028;-48
2023/02/07 07:32:50;;;;;;;30.20;17.05;;;0.60;64.00;;;-4.77;96.77;97018.66;5011795;28;20062;-46
2023/02/07 07:35:16;;;;;;;29.33;17.00;;;0.70;64.00;;;-4.79;96.61;97018.00;5031081;28;20395;-50
2023/02/07 07:37:42;;;;;;;27.40;16.08;;;0.70;64.00;;;-4.73;96.53;97022.63;4996539;28;20055;-50
2023/02/07 07:40:09;;;;;;;35.33;16.85;;;0.70;64.00;;;-4.74;96.37;97026.19;5028527;28;20453;-47
2023/02/07 07:42:41;;;;;;;28.02;16.02;;;0.80;64.00;;;-4.69;96.32;97030.03;5028433;28;20024;-49
2023/02/07 07:45:13;;;;;;;29.60;16.67;;;0.80;64.00;;;-4.59;95.84;97040.47;5029430;28;20036;-47
2023/02/07 07:47:42;;;;;;;23.30;12.55;;;0.90;63.80;;;-4.51;95.70;97038.03;5013265;28;20479;-49
2023/02/07 07:50:08;;;;;;;27.63;16.13;;;1.10;63.70;;;-4.34;94.64;97031.31;5012234;28;20033;-53
2023/02/07 07:52:37;;;;;;;30.67;15.43;;;1.40;63.50;;;-4.12;94.50;97039.81;5013651;28;20052;-46
2023/02/07 07:55:07;;;;;;;27.67;16.73;;;1.60;63.40;;;-3.99;93.18;97042.97;5031347;28;20115;-49
2023/02/07 07:57:33;;;;;;;29.58;16.65;;;1.80;63.20;;;-3.97;92.25;97051.47;5025015;28;20040;-49
2023/02/07 07:59:58;;;;;;;27.35;15.05;;;1.90;62.90;;;-3.93;92.50;97052.00;5011684;28;20032;-50
2023/02/07 08:02:25;;;;;;;23.88;14.30;;;2.00;62.80;;;-3.92;91.92;97059.66;5031696;28;20040;-48
2023/02/07 08:04:54;;;;;;;26.58;15.48;;;2.00;62.60;;;-3.87;91.18;97069.69;4994302;28;20021;-49
2023/02/07 08:07:19;;;;;;;24.50;14.90;;;2.20;62.40;;;-3.85;91.92;97070.38;5025468;28;20030;-47
2023/02/07 08:09:48;;;;;;;26.30;15.65;;;2.20;62.20;;;-3.82;91.26;97073.53;5028801;28;20395;-49
2023/02/07 08:12:20;;;;;;;25.85;15.57;;;2.30;62.10;;;-3.79;90.98;97072.41;5013178;28;20025;-48
2023/02/07 08:14:46;;;;;;;26.33;15.03;;;2.30;61.90;;;-3.84;90.77;97059.81;5011948;28;20036;-50
2023/02/07 08:17:15;;;;;;;23.67;14.25;;;2.40;61.80;;;-3.88;90.72;97073.25;5005617;28;20025;-47
2023/02/07 08:19:41;;;;;;;25.45;14.23;;;2.50;61.60;;;-3.75;90.24;97084.19;5028797;28;20036;-49
2023/02/07 08:22:15;;;;;;;25.23;14.75;;;2.60;61.40;;;-3.74;90.30;97091.84;5029877;28;20387;-52
2023/02/07 08:24:44;;;;;;;23.10;13.52;;;2.80;61.20;;;-3.54;89.82;97086.63;5030967;28;20479;-49
2023/02/07 08:27:10;;;;;;;23.58;14.70;;;2.90;60.90;;;-3.44;89.01;97078.81;5012324;28;20057;-48
2023/02/07 08:29:39;;;;;;;24.35;15.07;;;3.00;60.70;;;-3.45;88.73;97079.75;5035984;23;20553;-48
2023/02/07 08:32:11;;;;;;;23.88;14.60;;;3.10;60.40;;;-3.53;88.88;97088.28;5004623;28;20144;-48
2023/02/07 08:34:37;;;;;;;29.35;15.20;;;3.10;60.20;;;-3.52;88.83;97072.50;5011592;28;20020;-47
2023/02/07 08:37:09;;;;;;;23.25;14.80;;;3.20;60.10;;;-3.41;88.57;97083.75;5029048;28;20078;-48
2023/02/07 08:39:35;;;;;;;25.38;14.73;;;3.30;59.90;;;-3.46;88.71;97086.75;5008883;28;20872;-50
2023/02/07 08:45:05;;;;;;;26.10;15.18;;;3.50;59.50;;;-3.33;86.97;97081.25;5019436;28;20391;-46
2023/02/07 08:47:31;;;;;;;24.02;15.63;;;3.80;59.30;;;-3.20;86.65;97078.31;5015448;28;20021;-47
2023/02/07 08:49:57;;;;;;;22.23;14.50;;;4.00;59.10;;;-2.96;85.80;97086.47;5019919;28;20033;-49
2023/02/07 08:52:23;;;;;;;23.55;14.55;;;4.30;58.90;;;-2.67;84.79;97081.13;4998647;28;20149;-50
2023/02/07 08:54:49;;;;;;;22.63;14.32;;;4.50;58.70;;;-2.41;83.64;97078.66;5012378;28;20483;-49
2023/02/07 08:57:16;;;;;;;21.17;14.10;;;4.80;58.50;;;-2.35;82.89;97080.69;5016071;28;20025;-54
2023/02/07 08:59:42;;;;;;;22.90;14.52;;;5.00;58.20;;;-2.36;83.08;97075.59;5000655;28;20036;-50
2023/02/07 09:02:10;;;;;;;20.02;13.82;;;5.30;58.00;;;-2.19;81.25;97081.81;5007368;28;20052;-53
2023/02/07 09:04:42;;;;;;;21.20;13.20;;;5.50;57.70;;;-2.15;81.10;97070.91;4977820;28;21213;-54
2023/02/07 09:07:14;;;;;;;22.63;14.05;;;5.70;57.40;;;-2.03;81.85;97068.91;5016606;28;20422;-54
2023/02/07 09:09:44;;;;;;;15.82;11.10;;;5.80;57.10;;;-2.01;80.86;97076.59;5025524;28;20028;-53
2023/02/07 09:12:13;;;;;;;21.80;14.20;;;6.00;56.90;;;-1.83;80.47;97082.63;5004453;28;20118;-56
2023/02/07 09:14:40;;;;;;;22.13;14.23;;;6.10;56.60;;;-1.60;80.64;97076.94;5005420;28;20124;-54
2023/02/07 09:17:07;;;;;;;20.63;13.93;;;6.20;56.60;;;-1.56;79.97;97079.09;5009313;28;20048;-54
2023/02/07 09:19:35;;;;;;;22.92;13.55;;;6.40;56.30;;;-1.50;78.93;97078.50;5028778;28;20032;-57
2023/02/07 09:22:03;;;;;;;19.58;13.55;;;6.50;56.00;;;-1.54;79.46;97086.78;4985915;28;20021;-52
2023/02/07 09:24:50;;;;;;;20.42;14.65;;;6.60;56.40;;;-1.32;79.04;97085.47;5029782;28;20037;-52
2023/02/07 09:27:18;;;;;;;23.75;14.65;;;6.70;55.60;;;-1.18;78.82;97083.13;5018827;28;20055;-57
2023/02/07 09:29:44;;;;;;;21.13;13.80;;;6.90;55.60;;;-1.20;78.24;97086.84;5008224;28;20049;-54
2023/02/07 09:32:15;;;;;;;23.92;14.55;;;7.00;55.30;;;-0.90;78.17;97103.88;5013826;28;20037;-50
2023/02/07 09:34:41;;;;;;;22.00;14.00;;;7.10;55.10;;;-1.05;77.51;97090.53;4954771;28;20890;-53
2023/02/07 09:37:07;;;;;;;21.52;13.77;;;7.20;54.90;;;-0.85;77.03;97083.28;5011286;28;20018;-57
2023/02/07 09:39:37;;;;;;;19.73;14.10;;;7.40;54.80;;;-0.65;76.57;97081.25;5019078;28;20096;-53
2023/02/07 09:42:57;;;;;;;20.25;13.80;;;7.50;54.60;;;-0.38;75.68;97082.00;5011596;28;20068;-52
2023/02/07 09:45:33;;;;;;;21.83;14.13;;;7.70;54.40;;;-0.04;74.76;97080.13;5013570;28;20435;-57
2023/02/07 09:48:40;;;;;;;24.40;14.93;;;7.80;54.30;;;0.10;73.99;97067.38;5011554;28;20055;-53
2023/02/07 09:51:12;;;;;;;22.50;14.38;;;8.00;54.10;;;0.44;72.57;97077.72;5009741;28;20415;-53
2023/02/07 09:54:15;;;;;;;22.87;14.13;;;8.20;54.10;;;0.58;72.21;97079.66;5009768;28;20106;-57
2023/02/07 09:56:41;;;;;;;19.60;13.63;;;8.40;53.90;;;0.75;72.01;97084.88;5001754;28;20389;-56
2023/02/07 10:00:11;;;;;;;22.20;14.55;;;8.60;53.90;;;0.27;71.43;97097.03;4990859;28;20295;-58
2023/02/07 10:03:18;;;;;;;23.33;14.52;;;8.80;53.10;;;0.09;72.93;97094.53;4996500;28;20078;-55
2023/02/07 10:06:13;;;;;;;20.55;13.80;;;8.80;52.70;;;0.17;72.33;97099.81;5020900;28;20072;-50
2023/02/07 10:08:39;;;;;;;20.38;13.75;;;8.90;52.30;;;0.11;72.87;97103.88;4993578;28;20108;-56
2023/02/07 10:11:51;;;;;;;19.33;13.38;;;8.90;52.30;;;0.09;72.40;97115.50;5008061;28;20024;-51
2023/02/07 10:14:54;;;;;;;18.77;13.70;;;8.90;51.60;;;-0.07;72.66;97126.78;5002235;28;20116;-54
2023/02/07 10:18:11;;;;;;;18.00;13.03;;;8.90;51.50;;;-0.26;73.13;97125.25;5020802;28;20052;-55
2023/02/07 10:21:12;;;;;;;19.70;13.55;;;8.90;51.30;;;0.17;72.66;97116.34;4986046;28;20072;-54
2023/02/07 10:24:13;;;;;;;23.00;13.52;;;8.90;51.40;;;0.03;72.90;97121.38;4978857;28;20025;-55
2023/02/07 10:26:56;;;;;;;16.77;12.57;;;9.00;51.40;;;-0.15;73.32;97124.97;5026039;28;20488;-51
2023/02/07 10:30:13;;;;;;;18.38;12.80;;;9.00;51.10;;;0.04;73.31;97133.53;5026848;28;20562;-56
2023/02/07 10:32:41;;;;;;;17.88;13.80;;;9.00;50.90;;;0.40;72.43;97134.88;5018680;28;20086;-53
2023/02/07 10:35:35;;;;;;;21.50;13.55;;;9.10;51.20;;;0.32;72.85;97129.66;4988477;28;20144;-55
2023/02/07 10:38:06;;;;;;;18.83;13.18;;;9.30;50.80;;;0.32;71.38;97123.59;5023302;28;20108;-53
2023/02/07 10:41:00;;;;;;;18.45;13.30;;;9.30;50.80;;;0.49;70.06;97135.72;5006008;28;20033;-53
2023/02/07 10:43:33;;;;;;;19.17;13.65;;;9.40;50.40;;;0.49;70.07;97125.22;5007489;28;20398;-49
2023/02/07 10:46:09;;;;;;;18.10;13.50;;;9.50;50.30;;;0.35;69.32;97131.94;5008710;28;20364;-53
2023/02/07 10:48:38;;;;;;;16.13;13.07;;;9.60;50.10;;;0.44;70.78;97122.28;5016043;28;20029;-51
2023/02/07 10:51:56;;;;;;;19.30;13.73;;;9.60;49.90;;;0.71;69.64;97136.03;5006944;28;20025;-53
2023/02/07 10:54:28;;;;;;;19.85;13.25;;;9.70;49.70;;;1.03;70.25;97132.56;4974591;28;20129;-49